createdAt,value
2022-10-19T00:00:26.860Z,99933.63
2022-10-19T00:01:32.172Z,99927.37
2022-10-19T00:02:37.312Z,99928.39
2022-10-19T00:03:42.254Z,99927.55
2022-10-19T00:04:46.296Z,99928.39
2022-10-19T00:05:50.168Z,99928.23
2022-10-19T00:06:54.136Z,99930.92
2022-10-19T00:07:58.364Z,99927.70
2022-10-19T00:09:11.175Z,99925.02
2022-10-19T00:10:15.282Z,99925.02
2022-10-19T00:11:21.976Z,99923.34
2022-10-19T00:12:27.596Z,99923.34
2022-10-19T00:13:31.195Z,99912.58
2022-10-19T00:14:35.127Z,99912.58
2022-10-19T00:15:40.168Z,99913.60
2022-10-19T00:16:45.740Z,99913.60
2022-10-19T00:17:49.843Z,99913.07
2022-10-19T00:18:57.510Z,99904.02
2022-10-19T00:20:01.420Z,99903.33
2022-10-19T00:21:07.454Z,99903.33
2022-10-19T00:22:13.840Z,99901.78
2022-10-19T00:23:17.047Z,99898.25
2022-10-19T00:24:21.467Z,99905.48
2022-10-19T00:25:25.332Z,99905.48
2022-10-19T00:26:29.340Z,99898.41
2022-10-19T00:27:33.276Z,99898.41
2022-10-19T00:28:37.743Z,99887.83
2022-10-19T00:29:41.661Z,99887.83
2022-10-19T00:30:45.679Z,99888.81
2022-10-19T00:31:51.586Z,99887.98
2022-10-19T00:32:55.463Z,99884.27
2022-10-19T00:34:00.466Z,99884.61
2022-10-19T00:35:04.769Z,99879.23
2022-10-19T00:36:14.515Z,99882.94
2022-10-19T00:37:20.592Z,99882.94
2022-10-19T00:38:24.742Z,99875.02
2022-10-19T00:39:30.036Z,99871.50
2022-10-19T00:40:40.106Z,99872.52
2022-10-19T00:41:45.800Z,99866.30
2022-10-19T00:42:56.955Z,99865.44
2022-10-19T00:44:06.722Z,99869.14
2022-10-19T00:45:13.591Z,99863.08
2022-10-19T00:46:17.677Z,99860.39
2022-10-19T00:47:23.897Z,99859.55
2022-10-19T00:48:30.774Z,99859.55
2022-10-19T00:49:37.734Z,99855.34
2022-10-19T00:50:43.042Z,99850.46
2022-10-19T00:51:49.913Z,99848.64
2022-10-19T00:52:56.442Z,99848.64
2022-10-19T00:54:03.567Z,99845.27
2022-10-19T00:55:09.391Z,99841.74
2022-10-19T00:56:17.048Z,99836.52
2022-10-19T00:57:21.247Z,99834.51
2022-10-19T00:58:25.337Z,99827.61
2022-10-19T00:59:30.822Z,99832.16
2022-10-19T01:00:34.910Z,99826.93
2022-10-19T01:01:39.264Z,99823.41
2022-10-19T01:02:43.120Z,99827.11
2022-10-19T01:03:51.566Z,99816.02
2022-10-19T01:04:56.055Z,99819.53
2022-10-19T01:06:02.424Z,99819.53
2022-10-19T01:07:07.755Z,99816.31
2022-10-19T01:08:12.732Z,99814.48
2022-10-19T01:09:16.736Z,99810.63
2022-10-19T01:10:23.696Z,99811.28
2022-10-19T01:12:02.327Z,99805.90
2022-10-19T01:13:17.937Z,99809.61
2022-10-19T01:14:49.130Z,99809.76
2022-10-19T01:15:58.729Z,99810.93
2022-10-19T01:17:05.656Z,99810.93
2022-10-19T01:18:20.994Z,99808.58
2022-10-19T01:19:55.964Z,99808.58
2022-10-19T01:21:21.089Z,99808.58
2022-10-19T01:22:47.219Z,99807.92
2022-10-19T01:23:54.144Z,99804.89
2022-10-19T01:25:21.322Z,99804.89
2022-10-19T01:26:33.064Z,99809.25
2022-10-19T01:28:00.446Z,99803.87
2022-10-19T01:29:10.067Z,99795.95
2022-10-19T02:11:22.417Z,99760.81
2022-10-19T02:46:44.765Z,99731.91
2022-10-19T02:47:51.703Z,99735.25
2022-10-19T02:48:57.402Z,99733.24
2022-10-19T02:50:05.995Z,99732.26
2022-10-19T02:51:32.530Z,99729.23
2022-10-19T02:52:39.939Z,99727.20
2022-10-19T02:53:43.851Z,99727.20
2022-10-19T02:54:47.734Z,99719.83
2022-10-19T02:55:52.362Z,99716.16
2022-10-19T02:56:57.024Z,99719.83
2022-10-19T02:58:02.379Z,99727.89
2022-10-19T02:59:06.254Z,99718.66
2022-10-19T03:00:11.426Z,99725.70
2022-10-19T03:01:15.496Z,99727.73
2022-10-19T03:02:20.929Z,99719.49
2022-10-19T03:03:26.138Z,99723.88
2022-10-19T03:04:31.987Z,99727.41
2022-10-19T03:05:35.898Z,99714.13
2022-10-19T03:06:39.856Z,99717.83
2022-10-19T03:07:45.353Z,99693.28
2022-10-19T03:08:49.302Z,99693.28
2022-10-19T03:09:53.278Z,99716.80
2022-10-19T03:10:59.213Z,99716.80
2022-10-19T03:12:03.319Z,99721.19
2022-10-19T03:13:07.324Z,99725.40
2022-10-19T03:14:11.277Z,99722.86
2022-10-19T03:15:19.620Z,99722.86
2022-10-19T03:16:23.553Z,99726.23
2022-10-19T03:17:27.426Z,99704.71
2022-10-19T03:18:32.974Z,99725.40
2022-10-19T03:19:37.690Z,99725.40
2022-10-19T03:20:41.622Z,99717.98
2022-10-19T03:21:45.522Z,99721.69
2022-10-19T03:22:49.729Z,99722.53
2022-10-19T03:23:53.591Z,99722.53
2022-10-19T03:24:57.452Z,99713.48
2022-10-19T03:26:01.774Z,99721.54
2022-10-19T03:27:05.744Z,99721.54
2022-10-19T03:28:09.734Z,99711.45
2022-10-19T03:29:13.619Z,99713.14
2022-10-19T03:30:17.791Z,99713.14
2022-10-19T03:31:23.614Z,99721.20
2022-10-19T03:32:27.687Z,99707.77
2022-10-19T03:33:31.692Z,99707.77
2022-10-19T03:34:35.585Z,99702.06
2022-10-19T03:35:39.511Z,99692.98
2022-10-19T03:36:43.530Z,99692.98
2022-10-19T03:37:47.440Z,99687.95
2022-10-19T03:38:55.213Z,99694.00
2022-10-19T03:39:59.216Z,99688.63
2022-10-19T03:41:06.083Z,99695.52
2022-10-19T03:42:09.980Z,99695.33
2022-10-19T03:43:13.934Z,99687.95
2022-10-19T03:44:17.797Z,99691.31
2022-10-19T03:45:21.703Z,99686.09
2022-10-19T03:46:26.246Z,99689.46
2022-10-19T03:47:30.173Z,99694.50
2022-10-19T03:48:34.714Z,99697.70
2022-10-19T03:49:40.283Z,99694.00
2022-10-19T03:50:44.253Z,99702.75
2022-10-19T03:51:48.381Z,99693.66
2022-10-19T03:52:52.338Z,99699.72
2022-10-19T03:54:07.143Z,99688.77
2022-10-19T03:55:11.332Z,99686.95
2022-10-19T03:56:18.610Z,99686.77
2022-10-19T03:57:24.100Z,99683.09
2022-10-19T03:58:27.948Z,99678.55
2022-10-19T03:59:33.846Z,99684.75
2022-10-19T04:00:37.505Z,99684.41
2022-10-19T04:01:44.546Z,99679.88
2022-10-19T04:02:48.407Z,99681.38
2022-10-19T04:03:56.203Z,99681.38
2022-10-19T04:05:01.567Z,99672.48
2022-10-19T04:06:08.327Z,99668.77
2022-10-19T04:07:12.245Z,99668.61
2022-10-19T04:08:16.119Z,99666.76
2022-10-19T04:09:22.849Z,99663.91
2022-10-19T04:10:26.750Z,99660.20
2022-10-19T04:11:31.945Z,99662.89
2022-10-19T04:12:35.793Z,99659.02
2022-10-19T04:13:41.518Z,99660.05
2022-10-19T04:14:56.746Z,99661.71
2022-10-19T04:15:50.941Z,99655.31
2022-10-19T04:16:56.670Z,99655.31
2022-10-19T04:18:02.645Z,99654.47
2022-10-19T04:19:06.302Z,99651.98
2022-10-19T04:20:10.818Z,99651.63
2022-10-19T04:21:29.367Z,99655.98
2022-10-19T04:22:33.226Z,99665.56
2022-10-19T04:23:38.664Z,99669.27
2022-10-19T04:24:42.530Z,99663.70
2022-10-19T04:25:46.443Z,99663.55
2022-10-19T04:26:53.353Z,99660.38
2022-10-19T04:27:57.265Z,99655.83
2022-10-19T04:29:09.300Z,99656.66
2022-10-19T04:30:43.126Z,99656.66
2022-10-19T04:31:40.705Z,99668.73
2022-10-19T04:32:44.562Z,99671.43
2022-10-19T04:33:48.533Z,99674.98
2022-10-19T04:34:52.481Z,99674.98
2022-10-19T04:36:07.276Z,99677.48
2022-10-19T04:37:10.358Z,99678.16
2022-10-19T04:38:14.287Z,99682.70
2022-10-19T04:39:19.834Z,99682.70
2022-10-19T04:40:23.817Z,99687.90
2022-10-19T04:41:29.977Z,99683.38
2022-10-19T04:42:35.213Z,99694.14
2022-10-19T04:43:39.179Z,99688.42
2022-10-19T04:44:43.146Z,99690.09
2022-10-19T04:45:47.039Z,99685.54
2022-10-19T04:46:51.003Z,99688.91
2022-10-19T04:47:55.555Z,99694.13
2022-10-19T04:49:00.250Z,99689.58
2022-10-19T04:50:04.514Z,99690.25
2022-10-19T04:51:08.889Z,99691.92
2022-10-19T04:52:21.951Z,99689.05
2022-10-19T04:53:21.231Z,99691.61
2022-10-19T04:54:26.712Z,99697.82
2022-10-19T04:55:30.569Z,99682.83
2022-10-19T04:56:34.487Z,99684.56
2022-10-19T04:57:38.329Z,99686.23
2022-10-19T04:58:42.495Z,99687.06
2022-10-19T04:59:48.009Z,99687.89
2022-10-19T05:00:54.030Z,99687.89
2022-10-19T05:01:59.501Z,99694.97
2022-10-19T05:03:03.421Z,99694.97
2022-10-19T05:04:07.315Z,99701.19
2022-10-19T05:06:18.714Z,99692.09
2022-10-19T05:06:49.952Z,99692.09
2022-10-19T05:07:24.227Z,99695.65
2022-10-19T05:08:28.172Z,99691.94
2022-10-19T05:09:33.296Z,99701.67
2022-10-19T05:10:38.647Z,99701.67
2022-10-19T05:11:42.589Z,99696.13
2022-10-19T05:12:46.547Z,99700.49
2022-10-19T05:13:51.746Z,99688.73
2022-10-19T05:14:55.686Z,99691.42
2022-10-19T05:16:02.682Z,99684.86
2022-10-19T05:17:06.783Z,99684.86
2022-10-19T05:18:12.615Z,99697.97
2022-10-19T05:19:16.232Z,99700.66
2022-10-19T05:20:23.486Z,99696.94
2022-10-19T05:21:33.681Z,99691.21
2022-10-19T05:22:36.111Z,99695.41
2022-10-19T05:23:42.950Z,99697.94
2022-10-19T05:24:54.540Z,99705.83
2022-10-19T05:26:07.348Z,99707.68
2022-10-19T05:27:11.233Z,99699.61
2022-10-19T05:28:15.113Z,99707.52
2022-10-19T05:29:18.997Z,99709.38
2022-10-19T05:30:23.311Z,99711.05
2022-10-19T05:31:29.917Z,99716.23
2022-10-19T05:32:43.584Z,99727.01
2022-10-19T05:33:43.833Z,99722.65
2022-10-19T05:34:48.153Z,99733.41
2022-10-19T05:35:56.161Z,99738.12
2022-10-19T05:38:25.990Z,99742.67
2022-10-19T05:39:31.484Z,99750.07
2022-10-19T05:40:35.421Z,99747.57
2022-10-19T05:41:39.367Z,99753.95
2022-10-19T05:42:43.297Z,99751.09
2022-10-19T05:43:49.544Z,99744.05
2022-10-19T05:44:53.412Z,99749.59
2022-10-19T05:46:00.337Z,99746.22
2022-10-19T05:47:05.754Z,99743.72
2022-10-19T05:48:11.392Z,99743.72
2022-10-19T05:49:17.466Z,99749.26
2022-10-19T05:50:21.551Z,99739.17
2022-10-19T05:51:27.890Z,99740.00
2022-10-19T05:52:31.913Z,99736.28
2022-10-19T05:54:45.499Z,99738.47
2022-10-19T05:55:51.277Z,99731.91
2022-10-19T05:56:56.745Z,99731.91
2022-10-19T05:58:02.278Z,99736.94
2022-10-19T05:59:22.572Z,99734.92
2022-10-19T06:12:30.371Z,99741.48
2022-10-19T06:13:49.517Z,99739.63
2022-10-19T06:14:57.736Z,99739.63
2022-10-19T06:16:03.708Z,99745.66
2022-10-19T06:17:07.572Z,99756.92
2022-10-19T06:18:13.086Z,99754.73
2022-10-19T06:19:17.030Z,99762.63
2022-10-19T06:20:20.946Z,99762.63
2022-10-19T06:21:31.670Z,99768.53
2022-10-19T06:22:36.791Z,99761.95
2022-10-19T06:23:45.521Z,99756.57
2022-10-19T06:24:51.900Z,99749.97
2022-10-19T06:25:55.826Z,99755.03
2022-10-19T06:27:01.190Z,99755.03
2022-10-19T06:28:08.610Z,99751.16
2022-10-19T06:29:12.629Z,99755.03
2022-10-19T06:30:22.462Z,99755.03
2022-10-19T06:31:32.412Z,99760.06
2022-10-19T06:32:36.443Z,99765.10
2022-10-19T06:33:41.762Z,99760.39
2022-10-19T06:34:46.967Z,99759.20
2022-10-19T06:35:50.921Z,99755.64
2022-10-19T06:36:54.845Z,99760.39
2022-10-19T06:37:58.917Z,99765.42
2022-10-19T06:39:03.414Z,99770.62
2022-10-19T06:40:07.964Z,99769.42
2022-10-19T06:41:12.445Z,99771.77
2022-10-19T06:42:16.384Z,99771.77
2022-10-19T06:43:20.238Z,99785.39
2022-10-19T06:44:24.148Z,99782.70
2022-10-19T06:45:31.158Z,99780.84
2022-10-19T06:46:33.962Z,99780.13
2022-10-19T06:47:38.519Z,99780.13
2022-10-19T06:48:42.739Z,99776.44
2022-10-19T06:49:48.085Z,99779.80
2022-10-19T06:50:59.471Z,99779.80
2022-10-19T06:52:05.100Z,99781.28
2022-10-19T06:53:09.019Z,99788.17
2022-10-19T06:54:14.480Z,99788.17
2022-10-19T06:55:18.398Z,99784.48
2022-10-19T06:56:23.302Z,99782.46
2022-10-19T06:57:27.854Z,99782.46
2022-10-19T06:58:33.288Z,99781.75
2022-10-19T06:59:37.131Z,99783.25
2022-10-19T07:00:41.071Z,99783.92
2022-10-19T07:01:44.992Z,99783.92
2022-10-19T07:02:48.829Z,99789.78
2022-10-19T07:03:53.357Z,99789.78
2022-10-19T07:04:57.202Z,99784.03
2022-10-19T07:06:03.783Z,99784.03
2022-10-19T07:07:09.915Z,99787.71
2022-10-19T07:08:13.905Z,99782.95
2022-10-19T07:09:17.857Z,99782.95
2022-10-19T07:10:21.916Z,99789.22
2022-10-19T07:11:25.788Z,99780.45
2022-10-19T07:12:30.116Z,99780.45
2022-10-19T07:13:34.416Z,99781.81
2022-10-19T07:14:40.321Z,99781.81
2022-10-19T07:15:43.953Z,99781.81
2022-10-19T07:16:49.731Z,99789.55
2022-10-19T07:17:53.966Z,99789.55
2022-10-19T07:18:57.846Z,99800.33
2022-10-19T07:20:01.767Z,99805.55
2022-10-19T07:21:08.584Z,99803.69
2022-10-19T07:22:15.775Z,99807.22
2022-10-19T07:23:19.652Z,99817.48
2022-10-19T07:24:24.103Z,99812.09
2022-10-19T07:25:29.637Z,99814.98
2022-10-19T07:26:33.551Z,99814.98
2022-10-19T07:27:37.824Z,99821.33
2022-10-19T07:28:43.571Z,99816.47
2022-10-19T07:29:48.948Z,99818.30
2022-10-19T07:30:53.282Z,99818.30
2022-10-19T07:31:57.266Z,99815.24
2022-10-19T07:33:01.217Z,99823.00
2022-10-19T07:34:07.882Z,99824.67
2022-10-19T07:35:11.827Z,99820.58
2022-10-19T07:36:15.855Z,99820.58
2022-10-19T07:37:21.430Z,99804.59
2022-10-19T07:38:26.823Z,99804.59
2022-10-19T07:39:32.202Z,99812.16
2022-10-19T07:40:36.464Z,99813.16
2022-10-19T07:41:42.009Z,99806.27
2022-10-19T07:42:46.052Z,99802.67
2022-10-19T07:43:51.690Z,99802.67
2022-10-19T07:44:55.620Z,99798.01
2022-10-19T07:46:05.063Z,99807.77
2022-10-19T07:47:08.929Z,99807.77
2022-10-19T07:48:12.950Z,99811.23
2022-10-19T07:49:17.885Z,99811.37
2022-10-19T07:50:22.472Z,99813.34
2022-10-19T07:51:26.887Z,99813.34
2022-10-19T07:52:33.132Z,99819.05
2022-10-19T07:53:39.004Z,99814.31
2022-10-19T07:54:44.526Z,99814.31
2022-10-19T07:55:48.406Z,99813.11
2022-10-19T07:56:52.339Z,99815.61
2022-10-19T07:57:56.291Z,99809.52
2022-10-19T07:59:01.502Z,99812.51
2022-10-19T08:00:06.085Z,99807.74
2022-10-19T08:01:12.541Z,99806.74
2022-10-19T08:02:17.500Z,99818.84
2022-10-19T08:05:35.936Z,99795.50
2022-10-19T08:06:41.498Z,99795.50
2022-10-19T08:07:49.557Z,99808.46
2022-10-19T08:08:53.825Z,99804.52
2022-10-19T08:10:06.472Z,99804.52
2022-10-19T08:11:27.955Z,99793.72
2022-10-19T08:12:33.884Z,99793.72
2022-10-19T08:13:40.380Z,99801.11
2022-10-19T08:14:46.662Z,99793.02
2022-10-19T08:15:52.116Z,99793.02
2022-10-19T08:16:56.361Z,99793.02
2022-10-19T08:18:18.959Z,99794.67
2022-10-19T08:19:18.032Z,99788.44
2022-10-19T08:20:25.190Z,99788.44
2022-10-19T08:21:39.858Z,99792.17
2022-10-19T08:22:42.116Z,99788.27
2022-10-19T08:23:46.026Z,99787.61
2022-10-19T08:24:49.967Z,99784.70
2022-10-19T08:25:58.781Z,99785.91
2022-10-19T08:27:02.778Z,99785.91
2022-10-19T08:28:06.746Z,99776.31
2022-10-19T08:29:19.339Z,99790.02
2022-10-19T08:30:24.915Z,99794.67
2022-10-19T08:31:28.866Z,99790.97
2022-10-19T08:32:41.674Z,99789.65
2022-10-19T08:33:46.554Z,99787.23
2022-10-19T08:34:50.446Z,99787.23
2022-10-19T08:35:54.301Z,99786.58
2022-10-19T08:36:59.772Z,99789.27
2022-10-19T08:38:03.697Z,99789.27
2022-10-19T08:39:09.913Z,99791.69
2022-10-19T08:40:21.836Z,99791.69
2022-10-19T08:41:46.682Z,99787.03
2022-10-19T08:43:02.552Z,99786.20
2022-10-19T08:44:44.008Z,99777.89
2022-10-19T08:46:10.503Z,99777.89
2022-10-19T08:47:32.421Z,99787.98
2022-10-19T08:49:34.677Z,99783.04
2022-10-19T08:49:56.981Z,99783.04
2022-10-19T08:50:59.860Z,99786.20
2022-10-19T08:52:09.863Z,99784.16
2022-10-19T08:53:27.131Z,99784.16
2022-10-19T08:54:42.550Z,99792.64
2022-10-19T08:56:22.146Z,99792.27
2022-10-19T08:57:52.230Z,99794.67
2022-10-19T08:59:01.754Z,99790.97
2022-10-19T09:00:17.485Z,99802.61
2022-10-19T09:01:33.800Z,99811.25
2022-10-19T09:02:44.760Z,99809.30
2022-10-19T09:03:55.802Z,99799.62
2022-10-19T09:05:02.863Z,99807.01
2022-10-19T09:06:25.983Z,99804.56
2022-10-19T09:07:35.693Z,99802.52
2022-10-19T09:08:40.124Z,99802.52
2022-10-19T09:09:47.367Z,99791.34
2022-10-19T09:10:53.718Z,99798.33
2022-10-19T09:12:00.575Z,99798.33
2022-10-19T09:13:07.444Z,99799.16
2022-10-19T09:14:50.461Z,99799.16
2022-10-19T09:15:56.008Z,99791.71
2022-10-19T09:17:02.970Z,99803.19
2022-10-19T09:18:15.552Z,99807.55
2022-10-19T09:19:22.996Z,99800.94
2022-10-19T09:20:35.772Z,99803.27
2022-10-19T09:21:47.669Z,99791.34
2022-10-19T09:22:58.847Z,99796.73
2022-10-19T09:24:20.838Z,99796.65
2022-10-19T09:25:28.091Z,99804.44
2022-10-19T09:26:35.302Z,99805.07
2022-10-19T09:27:42.208Z,99804.69
2022-10-19T09:29:03.286Z,99807.05
2022-10-19T09:30:22.378Z,99807.05
2022-10-19T09:31:40.699Z,99810.11
2022-10-19T09:32:40.924Z,99800.95
2022-10-19T09:33:47.783Z,99800.95
2022-10-19T09:34:57.449Z,99803.77
2022-10-19T09:36:04.887Z,99793.51
2022-10-19T09:37:08.823Z,99799.02
2022-10-19T09:38:16.100Z,99804.42
2022-10-19T09:39:20.889Z,99802.45
2022-10-19T09:40:30.835Z,99789.14
2022-10-19T09:41:35.132Z,99795.37
2022-10-19T09:42:39.690Z,99789.41
2022-10-19T09:43:46.528Z,99789.41
2022-10-19T09:44:52.299Z,99788.48
2022-10-19T09:45:59.169Z,99800.88
2022-10-19T09:47:27.692Z,99800.33
2022-10-19T09:48:35.297Z,99800.33
2022-10-19T09:49:47.330Z,99796.13
2022-10-19T09:50:54.295Z,99803.09
2022-10-19T09:51:58.219Z,99803.09
2022-10-19T09:53:05.122Z,99801.42
2022-10-19T09:54:11.993Z,99796.73
2022-10-19T09:55:18.883Z,99795.83
2022-10-19T09:56:25.785Z,99795.83
2022-10-19T09:57:29.632Z,99792.00
2022-10-19T09:58:35.771Z,99792.28
2022-10-19T09:59:41.243Z,99795.47
2022-10-19T10:00:53.735Z,99795.47
2022-10-19T10:02:06.400Z,99798.52
2022-10-19T10:03:25.126Z,99796.86
2022-10-19T10:04:29.135Z,99790.36
2022-10-19T10:05:38.191Z,99795.76
2022-10-19T10:06:43.450Z,99798.73
2022-10-19T10:07:48.165Z,99793.61
2022-10-19T10:08:54.963Z,99788.37
2022-10-19T10:09:58.967Z,99789.48
2022-10-19T10:11:14.859Z,99790.70
2022-10-19T10:12:21.809Z,99791.80
2022-10-19T10:13:27.630Z,99789.94
2022-10-19T10:14:34.976Z,99793.13
2022-10-19T10:15:47.100Z,99791.15
2022-10-19T10:16:56.792Z,99792.46
2022-10-19T10:18:00.978Z,99787.44
2022-10-19T10:19:08.252Z,99782.20
2022-10-19T10:20:31.356Z,99782.41
2022-10-19T10:21:50.136Z,99780.34
2022-10-19T10:22:59.750Z,99773.65
2022-10-19T10:24:13.830Z,99770.67
2022-10-19T10:25:19.743Z,99770.67
2022-10-19T10:26:25.938Z,99776.08
2022-10-19T10:27:34.901Z,99776.08
2022-10-19T10:28:43.223Z,99786.13
2022-10-19T10:31:08.634Z,99775.02
2022-10-19T10:32:15.829Z,99771.10
2022-10-19T10:33:27.356Z,99771.10
2022-10-19T10:34:50.569Z,99762.22
2022-10-19T10:35:53.547Z,99767.25
2022-10-19T10:36:58.881Z,99766.86
2022-10-19T10:38:07.471Z,99768.55
2022-10-19T10:41:11.936Z,99758.00
2022-10-19T10:41:47.968Z,99759.84
2022-10-19T10:42:56.590Z,99765.73
2022-10-19T10:44:05.226Z,99765.73
2022-10-19T10:45:31.555Z,99763.29
2022-10-19T10:46:39.687Z,99763.29
2022-10-19T10:47:47.261Z,99757.10
2022-10-19T10:49:06.183Z,99756.71
2022-10-19T10:50:20.352Z,99760.52
2022-10-19T10:51:36.099Z,99756.19
2022-10-19T10:52:40.487Z,99753.48
2022-10-19T10:53:46.215Z,99731.32
2022-10-19T10:55:04.698Z,99753.09
2022-10-19T10:56:25.104Z,99753.09
2022-10-19T10:57:34.728Z,99757.75
2022-10-19T10:58:41.676Z,99759.02
2022-10-19T11:00:09.834Z,99767.41
2022-10-19T11:01:23.819Z,99767.41
2022-10-19T11:02:32.435Z,99759.53
2022-10-19T11:03:39.357Z,99749.10
2022-10-19T11:04:51.463Z,99747.05
2022-10-19T11:05:59.097Z,99750.77
2022-10-19T11:07:05.951Z,99742.21
2022-10-19T11:08:41.433Z,99742.21
2022-10-19T11:09:57.386Z,99737.38
2022-10-19T11:11:13.197Z,99743.97
2022-10-19T11:12:25.159Z,99740.17
2022-10-19T11:13:33.233Z,99740.17
2022-10-19T11:14:47.638Z,99740.48
2022-10-19T11:16:03.481Z,99740.22
2022-10-19T11:17:10.338Z,99738.29
2022-10-19T11:18:34.402Z,99736.36
2022-10-19T11:19:41.385Z,99736.09
2022-10-19T11:21:00.123Z,99727.90
2022-10-19T11:22:34.698Z,99732.20
2022-10-19T11:23:44.608Z,99735.80
2022-10-19T11:25:07.685Z,99737.19
2022-10-19T11:26:30.713Z,99731.90
2022-10-19T11:27:49.547Z,99731.90
2022-10-19T11:29:20.035Z,99728.57
2022-10-19T11:30:17.242Z,99735.64
2022-10-19T11:31:38.472Z,99730.23
2022-10-19T11:33:09.250Z,99730.50
2022-10-19T11:34:25.133Z,99722.45
2022-10-19T11:35:50.395Z,99722.45
2022-10-19T11:37:03.182Z,99720.50
2022-10-19T11:38:29.821Z,99710.31
2022-10-19T11:39:31.563Z,99716.76
2022-10-19T11:41:06.033Z,99700.71
2022-10-19T11:41:55.544Z,99700.71
2022-10-19T11:43:09.560Z,99699.88
2022-10-19T11:44:19.454Z,99701.09
2022-10-19T11:45:42.256Z,99695.91
2022-10-19T11:46:58.017Z,99689.84
2022-10-19T11:48:08.004Z,99696.29
2022-10-19T11:49:29.741Z,99692.93
2022-10-19T11:50:46.694Z,99691.62
2022-10-19T11:52:05.918Z,99689.30
2022-10-19T11:53:23.419Z,99688.65
2022-10-19T11:54:40.269Z,99679.05
2022-10-19T11:55:58.899Z,99689.03
2022-10-19T11:57:26.935Z,99687.16
2022-10-19T11:58:57.807Z,99679.92
2022-10-19T12:00:15.370Z,99679.92
2022-10-19T12:01:31.002Z,99673.48
2022-10-19T12:02:46.456Z,99675.41
2022-10-19T12:04:04.925Z,99668.78
2022-10-19T12:05:17.569Z,99668.87
2022-10-19T12:06:30.406Z,99667.26
2022-10-19T12:07:56.525Z,99672.72
2022-10-19T12:09:09.248Z,99666.09
2022-10-19T12:10:38.239Z,99669.45
2022-10-19T12:12:19.583Z,99655.72
2022-10-19T12:13:29.006Z,99659.91
2022-10-19T12:14:35.901Z,99660.50
2022-10-19T12:15:45.454Z,99655.09
2022-10-19T12:16:52.396Z,99659.85
2022-10-19T12:17:59.296Z,99663.59
2022-10-19T12:19:06.095Z,99663.59
2022-10-19T12:20:33.241Z,99659.41
2022-10-19T12:21:40.643Z,99658.19
2022-10-19T12:22:45.817Z,99657.98
2022-10-19T12:23:50.529Z,99659.85
2022-10-19T12:24:57.167Z,99659.85
2022-10-19T12:26:04.050Z,99650.08
2022-10-19T12:27:09.896Z,99650.70
2022-10-19T12:28:19.837Z,99654.27
2022-10-19T12:29:30.850Z,99650.70
2022-10-19T12:30:36.281Z,99650.70
2022-10-19T12:31:40.903Z,99650.65
2022-10-19T12:33:16.441Z,99651.48
2022-10-19T12:34:38.126Z,99645.42
2022-10-19T12:35:47.993Z,99656.83
2022-10-19T12:36:57.658Z,99642.45
2022-10-19T12:38:07.157Z,99652.26
2022-10-19T12:39:19.844Z,99648.52
2022-10-19T12:40:40.708Z,99648.52
2022-10-19T12:42:05.851Z,99648.13
2022-10-19T12:43:17.050Z,99642.72
2022-10-19T12:44:59.024Z,99645.23
2022-10-19T12:46:26.869Z,99652.78
2022-10-19T12:47:33.059Z,99652.78
2022-10-19T12:48:37.253Z,99646.16
2022-10-19T12:49:52.382Z,99648.25
2022-10-19T12:51:03.018Z,99648.25
2022-10-19T12:52:07.320Z,99639.96
2022-10-19T12:53:14.226Z,99637.91
2022-10-19T12:54:21.199Z,99637.91
2022-10-19T12:55:50.494Z,99642.27
2022-10-19T12:57:09.120Z,99642.27
2022-10-19T13:31:35.078Z,99614.79
2022-10-19T13:32:47.651Z,99614.79
2022-10-19T13:33:52.789Z,99611.22
2022-10-19T13:34:58.551Z,99611.22
2022-10-19T13:36:08.526Z,99608.73
2022-10-19T13:37:13.573Z,99605.37
2022-10-19T13:38:20.483Z,99608.08
2022-10-19T13:39:26.398Z,99591.20
2022-10-19T13:40:31.584Z,99594.95
2022-10-19T13:41:41.129Z,99594.95
2022-10-19T13:42:45.285Z,99591.60
2022-10-19T13:44:07.605Z,99600.36
2022-10-19T13:45:26.722Z,99596.00
2022-10-19T13:46:33.358Z,99591.60
2022-10-19T13:47:42.658Z,99595.34
2022-10-19T13:48:58.429Z,99596.36
2022-10-19T13:50:05.467Z,99596.36
2022-10-19T13:51:28.679Z,99596.58
2022-10-19T13:52:44.133Z,99573.99
2022-10-19T13:54:02.860Z,99573.99
2022-10-19T13:55:31.923Z,99583.63
2022-10-19T13:57:05.656Z,99583.63
2022-10-19T13:58:12.536Z,99582.98
2022-10-19T13:59:22.119Z,99588.59
2022-10-19T14:00:51.351Z,99586.07
2022-10-19T14:02:16.624Z,99586.07
2022-10-19T14:03:44.742Z,99582.49
2022-10-19T14:05:12.471Z,99582.49
2022-10-19T14:06:28.406Z,99587.16
2022-10-19T14:07:36.889Z,99587.16
2022-10-19T14:09:17.086Z,99577.13
2022-10-19T14:10:28.267Z,99584.15
2022-10-19T14:11:41.418Z,99584.15
2022-10-19T14:12:47.146Z,99580.31
2022-10-19T14:14:13.338Z,99580.31
2022-10-19T14:15:30.322Z,99574.47
2022-10-19T14:16:34.565Z,99574.47
2022-10-19T14:17:42.144Z,99569.45
2022-10-19T14:18:58.981Z,99567.77
2022-10-19T14:20:10.338Z,99569.81
2022-10-19T14:21:15.618Z,99567.11
2022-10-19T14:22:28.012Z,99566.48
2022-10-19T14:23:35.085Z,99566.48
2022-10-19T14:24:39.040Z,99568.72
2022-10-19T14:25:45.907Z,99574.95
2022-10-19T14:26:51.549Z,99574.95
2022-10-19T14:28:04.764Z,99572.25
2022-10-19T14:29:11.646Z,99560.61
2022-10-19T14:30:36.166Z,99564.53
2022-10-19T14:31:42.062Z,99564.53
2022-10-19T14:32:46.515Z,99552.63
2022-10-19T14:33:56.155Z,99566.34
2022-10-19T14:36:10.029Z,99551.91
2022-10-19T14:37:26.286Z,99551.27
2022-10-19T14:38:35.850Z,99552.48
2022-10-19T14:39:39.753Z,99544.37
2022-10-19T14:40:43.751Z,99548.29
2022-10-19T14:41:47.606Z,99548.29
2022-10-19T14:42:53.068Z,99544.97
2022-10-19T14:43:58.071Z,99544.11
2022-10-19T14:45:02.588Z,99544.11
2022-10-19T14:46:12.643Z,99549.06
2022-10-19T14:47:26.177Z,99534.91
2022-10-19T14:48:30.117Z,99534.45
2022-10-19T14:49:36.544Z,99534.63
2022-10-19T14:50:49.424Z,99534.02
2022-10-19T14:51:56.255Z,99535.02
2022-10-19T14:53:03.162Z,99535.02
2022-10-19T14:54:22.115Z,99534.75
2022-10-19T14:55:29.049Z,99537.00
2022-10-19T14:56:39.079Z,99535.51
2022-10-19T14:57:46.054Z,99534.23
2022-10-19T14:59:13.848Z,99534.23
2022-10-19T15:00:23.439Z,99539.14
2022-10-19T15:01:27.516Z,99535.92
2022-10-19T15:02:48.636Z,99541.04
2022-10-19T15:03:53.060Z,99535.53
2022-10-19T15:04:59.685Z,99538.78
2022-10-19T15:06:08.024Z,99536.67
2022-10-19T15:07:19.251Z,99536.67
2022-10-19T15:08:28.997Z,99529.05
2022-10-19T15:09:37.606Z,99533.95
2022-10-19T15:10:47.333Z,99532.80
2022-10-19T15:11:52.950Z,99532.34
2022-10-19T15:13:02.794Z,99530.85
2022-10-19T15:14:15.327Z,99530.85
2022-10-19T15:15:22.318Z,99528.23
2022-10-19T15:40:28.666Z,99537.29
2022-10-19T15:41:35.194Z,99529.71
2022-10-19T15:42:43.516Z,99540.12
2022-10-19T15:45:30.459Z,99535.87
2022-10-19T15:47:45.362Z,99533.48
2022-10-19T15:48:55.330Z,99534.44
2022-10-19T15:50:03.616Z,99533.05
2022-10-19T15:51:18.661Z,99540.77
2022-10-19T15:52:24.128Z,99537.70
2022-10-19T15:53:29.344Z,99536.70
2022-10-19T15:54:33.295Z,99536.34
2022-10-19T15:55:39.159Z,99538.00
2022-10-19T15:56:49.880Z,99538.00
2022-10-19T15:58:00.704Z,99537.63
2022-10-19T15:59:07.550Z,99537.47
2022-10-19T16:00:18.886Z,99540.98
2022-10-19T16:01:26.422Z,99538.96
2022-10-19T16:02:30.555Z,99543.32
2022-10-19T16:03:34.553Z,99545.84
2022-10-19T16:04:41.182Z,99540.26
2022-10-19T16:05:48.818Z,99545.48